Time;durP1;ratioP1;P1;durP2;ratioP2;P2;SDS_P1;SDS_P2;PMS_P1;PMS_P2;Temp;Humidity;BMP_temperature;BMP_pressure;BME280_temperature;BME280_humidity;BME280_pressure;Samples;Min_cycle;Max_cycle;Signal;HPM_P1;HPM_P2
2021/08/01 00:01:34;;;;;;;9.88;8.35;;;16.50;99.90;;;;;;5050064;28;20042;-42
2021/08/01 00:04:00;;;;;;;9.38;8.00;;;16.50;99.90;;;;;;5051840;28;20036;-41
2021/08/01 00:06:26;;;;;;;8.18;7.40;;;16.50;99.90;;;;;;5051475;28;20110;-42
2021/08/01 00:08:52;;;;;;;9.18;7.88;;;16.50;99.90;;;;;;5050869;28;20033;-42
2021/08/01 00:11:18;;;;;;;8.75;7.85;;;16.50;99.90;;;;;;5051314;28;20376;-42
2021/08/01 00:13:43;;;;;;;8.43;7.50;;;16.50;99.90;;;;;;5050919;28;20103;-42
2021/08/01 00:16:09;;;;;;;8.68;7.72;;;16.50;99.90;;;;;;5050666;28;20442;-42
2021/08/01 00:18:38;;;;;;;9.38;8.20;;;16.50;99.90;;;;;;5050537;28;20060;-42
2021/08/01 00:21:04;;;;;;;8.57;7.50;;;16.50;99.90;;;;;;5052318;28;20021;-42
2021/08/01 00:23:30;;;;;;;8.77;7.97;;;16.40;99.90;;;;;;5050026;28;20055;-42
2021/08/01 00:25:57;;;;;;;8.73;7.82;;;16.40;99.90;;;;;;5051432;28;20477;-42
2021/08/01 00:28:26;;;;;;;9.05;8.15;;;16.40;99.90;;;;;;5050944;28;20016;-42
2021/08/01 00:30:51;;;;;;;10.80;7.90;;;16.40;99.90;;;;;;5047858;28;20024;-42
2021/08/01 00:33:17;;;;;;;9.10;8.15;;;16.40;99.90;;;;;;5051164;28;20025;-43
2021/08/01 00:35:42;;;;;;;8.18;7.38;;;16.40;99.90;;;;;;5050168;28;20439;-41
2021/08/01 00:38:10;;;;;;;9.55;8.65;;;16.40;99.90;;;;;;5051206;28;20036;-42
2021/08/01 00:40:36;;;;;;;8.75;7.75;;;16.40;99.90;;;;;;5049376;28;20045;-42
2021/08/01 00:43:02;;;;;;;10.30;8.40;;;16.30;99.90;;;;;;5050900;28;20392;-43
2021/08/01 00:45:29;;;;;;;9.27;8.38;;;16.30;99.90;;;;;;5049767;28;20013;-42
2021/08/01 00:47:54;;;;;;;10.60;9.50;;;16.30;99.90;;;;;;5051197;28;20075;-42
2021/08/01 00:50:20;;;;;;;11.60;9.93;;;16.20;99.90;;;;;;5049179;28;20033;-42
2021/08/01 00:52:49;;;;;;;11.15;10.05;;;16.20;99.90;;;;;;5050884;28;20450;-42
2021/08/01 00:55:18;;;;;;;10.10;9.10;;;16.20;99.90;;;;;;5050084;28;20017;-43
2021/08/01 00:57:43;;;;;;;11.20;10.10;;;16.20;99.90;;;;;;5049983;28;20029;-42
2021/08/01 01:00:15;;;;;;;10.07;8.85;;;16.20;99.90;;;;;;5051416;28;20028;-43
2021/08/01 01:02:48;;;;;;;10.15;9.02;;;16.20;99.90;;;;;;5049644;28;20391;-43
2021/08/01 01:05:21;;;;;;;;;;;16.20;99.90;;;;;;5050615;28;20475;-42
2021/08/01 01:08:02;;;;;;;11.30;9.45;;;16.20;99.90;;;;;;5050645;28;19915;-41
2021/08/01 01:10:37;;;;;;;9.98;8.98;;;16.10;99.90;;;;;;5049531;28;20082;-42
2021/08/01 01:13:14;;;;;;;10.05;9.05;;;16.10;99.90;;;;;;5049747;28;20533;-42
2021/08/01 01:15:46;;;;;;;10.13;9.13;;;16.00;99.90;;;;;;5049474;28;20111;-42
2021/08/01 01:18:21;;;;;;;9.57;8.65;;;16.10;99.90;;;;;;5049788;28;20037;-42
2021/08/01 01:21:27;;;;;;;10.68;9.65;;;16.00;99.90;;;;;;5050299;28;20021;-41
2021/08/01 01:24:00;;;;;;;11.68;9.35;;;16.00;99.90;;;;;;5049832;28;20465;-41
2021/08/01 01:26:36;;;;;;;10.32;9.07;;;15.90;99.90;;;;;;5048684;28;20029;-43
2021/08/01 01:29:20;;;;;;;12.52;9.68;;;15.90;99.90;;;;;;5050203;28;20036;-42
2021/08/01 01:31:46;;;;;;;10.88;8.77;;;15.90;99.90;;;;;;5049098;28;20487;-42
2021/08/01 01:34:37;;;;;;;10.63;9.52;;;15.90;99.90;;;;;;5050195;28;20049;-42
2021/08/01 01:37:06;;;;;;;10.50;9.50;;;15.80;99.90;;;;;;5049711;28;20041;-42
2021/08/01 01:39:34;;;;;;;10.55;9.45;;;15.80;99.90;;;;;;5047970;28;20025;-42
2021/08/01 01:42:01;;;;;;;10.77;9.05;;;15.90;99.90;;;;;;5049747;28;20031;-42
2021/08/01 01:44:30;;;;;;;12.40;9.90;;;15.80;99.90;;;;;;5048526;28;20445;-42
2021/08/01 01:46:57;;;;;;;11.70;9.63;;;15.80;99.90;;;;;;5049269;28;20495;-42
2021/08/01 01:49:24;;;;;;;10.65;9.20;;;15.80;99.90;;;;;;5049078;28;20025;-42
2021/08/01 01:51:50;;;;;;;9.98;8.98;;;15.90;99.90;;;;;;5048728;28;20033;-42
2021/08/01 01:54:20;;;;;;;9.82;8.82;;;15.80;99.90;;;;;;5048689;28;20063;-41
2021/08/01 01:56:46;;;;;;;9.40;8.50;;;15.80;99.90;;;;;;5049425;28;20029;-40
2021/08/01 01:59:13;;;;;;;10.00;9.02;;;15.80;99.90;;;;;;5049620;28;20099;-39
2021/08/01 02:01:39;;;;;;;9.55;8.57;;;15.70;99.90;;;;;;5048209;28;20036;-41
2021/08/01 02:04:05;;;;;;;9.93;8.52;;;15.70;99.90;;;;;;5049528;28;20017;-42
2021/08/01 02:06:33;;;;;;;9.80;8.82;;;15.70;99.90;;;;;;5048999;28;20423;-42
2021/08/01 02:09:12;;;;;;;10.45;9.10;;;15.60;99.90;;;;;;5047528;28;20025;-40
2021/08/01 02:11:49;;;;;;;10.63;9.52;;;15.60;99.90;;;;;;5048780;28;20401;-42
2021/08/01 02:14:22;;;;;;;11.27;10.15;;;15.60;99.90;;;;;;5048608;28;20024;-39
2021/08/01 02:16:49;;;;;;;;;;;15.60;99.90;;;;;;5049401;28;20396;-42
2021/08/01 02:19:16;;;;;;;10.70;9.32;;;15.50;99.90;;;;;;5048926;28;20356;-41
2021/08/01 02:21:44;;;;;;;13.00;9.95;;;15.50;99.90;;;;;;5047837;28;20021;-42
2021/08/01 02:24:10;;;;;;;10.38;9.27;;;15.50;99.90;;;;;;5049442;28;20013;-39
2021/08/01 02:26:40;;;;;;;10.57;9.38;;;15.40;99.90;;;;;;5048799;28;20033;-42
2021/08/01 02:29:10;;;;;;;10.27;9.05;;;15.40;99.90;;;;;;5048359;28;20108;-42
2021/08/01 02:31:36;;;;;;;11.85;9.77;;;15.40;99.90;;;;;;5048057;28;20017;-41
2021/08/01 02:34:02;;;;;;;10.52;9.25;;;15.40;99.90;;;;;;5048828;28;20480;-42
2021/08/01 02:36:27;;;;;;;13.38;9.95;;;15.40;99.90;;;;;;5047932;28;20033;-40
2021/08/01 02:38:59;;;;;;;13.35;10.30;;;15.30;99.90;;;;;;5048796;28;20013;-43
2021/08/01 02:41:42;;;;;;;11.48;10.38;;;15.40;99.90;;;;;;5047945;28;20029;-42
2021/08/01 02:44:16;;;;;;;11.75;9.98;;;15.40;99.90;;;;;;5048351;28;20023;-42
2021/08/01 02:46:43;;;;;;;10.02;9.02;;;15.50;99.90;;;;;;5048640;28;20025;-41
2021/08/01 02:49:21;;;;;;;8.98;8.00;;;15.50;99.90;;;;;;5047969;28;20365;-41
2021/08/01 02:51:50;;;;;;;10.25;9.18;;;15.60;99.90;;;;;;5049423;28;20025;-42
2021/08/01 02:54:16;;;;;;;10.10;9.10;;;15.60;99.90;;;;;;5048596;28;20017;-42
2021/08/01 02:56:43;;;;;;;9.88;8.50;;;15.60;99.90;;;;;;5047484;28;20043;-42
2021/08/01 02:59:10;;;;;;;11.98;8.85;;;15.60;99.90;;;;;;5049001;28;20528;-42
2021/08/01 03:01:36;;;;;;;11.45;9.40;;;15.60;99.90;;;;;;5047825;28;20016;-42
2021/08/01 03:04:05;;;;;;;11.27;9.63;;;15.60;99.90;;;;;;5049755;28;20070;-39
2021/08/01 03:06:32;;;;;;;10.85;9.70;;;15.60;99.90;;;;;;5041005;28;20492;-42
2021/08/01 03:09:02;;;;;;;11.00;9.90;;;15.60;99.90;;;;;;5052657;28;20025;-41
2021/08/01 03:11:32;;;;;;;10.10;9.10;;;15.70;99.90;;;;;;5050898;28;20477;-41
2021/08/01 03:13:58;;;;;;;11.48;10.27;;;15.70;99.90;;;;;;5053020;28;20017;-42
2021/08/01 03:16:24;;;;;;;11.23;10.07;;;15.80;99.90;;;;;;5051679;28;20021;-42
2021/08/01 03:18:49;;;;;;;10.40;9.30;;;15.80;99.90;;;;;;5052281;28;20432;-42
2021/08/01 03:21:14;;;;;;;12.23;10.82;;;15.80;99.90;;;;;;5052343;28;20497;-43
2021/08/01 03:23:43;;;;;;;10.75;9.65;;;15.90;99.90;;;;;;5052013;28;20041;-41
2021/08/01 03:26:08;;;;;;;11.90;10.60;;;15.90;99.90;;;;;;5051646;28;20083;-42
2021/08/01 03:28:37;;;;;;;11.07;10.07;;;15.90;99.90;;;;;;5051775;28;20025;-42
2021/08/01 03:31:02;;;;;;;11.90;10.70;;;16.00;99.90;;;;;;5052354;28;20468;-40
2021/08/01 03:33:28;;;;;;;11.10;10.00;;;16.00;99.90;;;;;;5051234;28;20091;-42
2021/08/01 03:35:53;;;;;;;12.75;10.88;;;16.00;99.90;;;;;;5051577;28;20463;-42
2021/08/01 03:38:19;;;;;;;12.15;11.02;;;16.00;99.90;;;;;;5052402;28;20024;-43
2021/08/01 03:40:44;;;;;;;12.02;10.80;;;16.00;99.90;;;;;;5050848;28;20017;-42
2021/08/01 03:43:10;;;;;;;11.30;10.05;;;16.10;99.90;;;;;;5051982;28;20033;-42
2021/08/01 03:45:36;;;;;;;11.63;10.43;;;16.00;99.90;;;;;;5050572;28;20070;-43
2021/08/01 03:48:01;;;;;;;11.57;10.48;;;16.00;99.90;;;;;;5051712;28;20036;-43
2021/08/01 03:50:27;;;;;;;11.45;9.95;;;16.00;99.90;;;;;;5050806;28;20021;-43
2021/08/01 03:52:52;;;;;;;11.80;10.65;;;16.00;99.90;;;;;;5051461;28;20021;-43
2021/08/01 03:55:20;;;;;;;10.48;9.38;;;16.00;99.90;;;;;;5052307;28;20028;-41
2021/08/01 03:57:46;;;;;;;11.25;10.07;;;16.00;99.90;;;;;;5047739;28;20391;-42
2021/08/01 04:00:12;;;;;;;10.50;9.40;;;16.10;99.90;;;;;;5051485;28;20492;-43
2021/08/01 04:02:38;;;;;;;12.10;10.90;;;16.00;99.90;;;;;;5051024;28;20025;-43
2021/08/01 04:05:05;;;;;;;12.35;11.13;;;16.00;99.90;;;;;;5052217;28;20020;-44
2021/08/01 04:07:30;;;;;;;10.63;9.55;;;16.00;99.90;;;;;;5050010;28;20033;-41
2021/08/01 04:09:58;;;;;;;10.32;8.68;;;16.00;99.90;;;;;;5052067;28;20021;-42
2021/08/01 04:12:24;;;;;;;10.18;9.13;;;16.00;99.90;;;;;;5050310;28;20445;-41
2021/08/01 04:14:50;;;;;;;10.48;9.38;;;16.10;99.90;;;;;;5050673;28;20028;-42
2021/08/01 04:17:19;;;;;;;12.90;10.60;;;16.10;99.90;;;;;;5051034;28;20532;-42
2021/08/01 04:19:46;;;;;;;10.45;9.43;;;16.10;99.90;;;;;;5050858;28;20032;-42
2021/08/01 04:22:14;;;;;;;11.50;9.65;;;16.10;99.90;;;;;;5050570;28;20025;-42
2021/08/01 04:24:40;;;;;;;11.35;10.18;;;16.10;99.90;;;;;;5050830;28;20028;-42
2021/08/01 04:27:06;;;;;;;10.57;9.45;;;16.10;99.90;;;;;;5051354;28;20021;-43
2021/08/01 04:29:32;;;;;;;12.77;10.90;;;16.20;99.90;;;;;;5049708;28;20468;-42
2021/08/01 04:31:58;;;;;;;12.18;10.40;;;16.20;99.90;;;;;;5050511;28;20028;-43
2021/08/01 04:34:27;;;;;;;11.90;10.70;;;16.20;99.90;;;;;;5050524;28;20106;-42
2021/08/01 04:36:53;;;;;;;10.77;9.77;;;16.20;99.90;;;;;;5050410;28;20025;-42
2021/08/01 04:39:19;;;;;;;9.55;8.65;;;16.20;99.90;;;;;;5050834;28;20384;-38
2021/08/01 04:41:45;;;;;;;11.45;10.25;;;16.20;99.90;;;;;;5049904;28;20021;-41
2021/08/01 04:44:10;;;;;;;10.57;9.48;;;16.20;99.90;;;;;;5050536;28;20474;-43
2021/08/01 04:46:39;;;;;;;9.50;8.45;;;16.20;99.90;;;;;;5049806;28;20086;-48
2021/08/01 04:49:08;;;;;;;11.20;10.00;;;16.20;99.90;;;;;;5049933;28;20032;-41
2021/08/01 04:51:36;;;;;;;10.70;9.70;;;16.20;99.90;;;;;;5051068;28;20025;-42
2021/08/01 04:54:01;;;;;;;12.63;9.50;;;16.20;99.90;;;;;;5050756;28;20024;-43
2021/08/01 04:56:27;;;;;;;14.30;9.25;;;16.30;99.90;;;;;;5049305;28;20380;-41
2021/08/01 04:58:53;;;;;;;10.15;8.30;;;16.30;99.90;;;;;;5050144;28;20053;-42
2021/08/01 05:01:18;;;;;;;10.00;8.93;;;16.40;99.90;;;;;;5050972;28;20033;-40
2021/08/01 05:03:45;;;;;;;10.57;8.93;;;16.40;99.90;;;;;;5048996;28;20053;-42
2021/08/01 05:06:10;;;;;;;13.38;9.40;;;16.40;99.90;;;;;;5050406;28;20546;-43
2021/08/01 05:08:37;;;;;;;12.05;10.77;;;16.40;99.90;;;;;;5049137;28;20104;-42
2021/08/01 05:11:03;;;;;;;16.58;10.75;;;16.50;99.90;;;;;;5049873;28;20025;-42
2021/08/01 05:13:28;;;;;;;12.80;9.38;;;16.50;99.90;;;;;;5048791;28;20439;-43
2021/08/01 05:15:54;;;;;;;12.88;9.93;;;16.50;99.90;;;;;;5050423;28;20431;-43
2021/08/01 05:18:20;;;;;;;10.38;8.52;;;16.50;99.90;;;;;;5049092;28;20461;-42
2021/08/01 05:20:46;;;;;;;11.95;9.68;;;16.60;99.90;;;;;;5049800;28;20020;-42
2021/08/01 05:23:12;;;;;;;12.68;10.20;;;16.60;99.90;;;;;;5050495;28;20396;-42
2021/08/01 05:25:38;;;;;;;11.68;9.90;;;16.60;99.90;;;;;;5048819;28;20033;-42
2021/08/01 05:28:04;;;;;;;10.65;9.45;;;16.60;99.90;;;;;;5049672;28;20028;-42
2021/08/01 05:30:30;;;;;;;13.05;11.05;;;16.60;99.90;;;;;;5049308;28;20025;-43
2021/08/01 05:32:55;;;;;;;14.48;12.10;;;16.60;99.90;;;;;;5049166;28;20021;-43
2021/08/01 05:35:21;;;;;;;16.38;12.00;;;16.60;99.90;;;;;;5049717;28;20519;-43
2021/08/01 05:37:50;;;;;;;15.82;11.30;;;16.70;99.90;;;;;;5049660;28;20033;-43
2021/08/01 05:40:15;;;;;;;15.00;11.88;;;16.70;99.90;;;;;;5049123;28;20025;-43
2021/08/01 05:42:41;;;;;;;19.80;14.55;;;16.70;99.90;;;;;;5049462;28;20797;-43
2021/08/01 05:45:10;;;;;;;16.67;12.82;;;16.70;99.90;;;;;;5048251;28;20017;-42
2021/08/01 05:47:38;;;;;;;17.40;13.25;;;16.70;99.90;;;;;;5048539;28;20064;-42
2021/08/01 05:50:04;;;;;;;16.05;12.02;;;16.70;99.90;;;;;;5049427;28;20013;-43
2021/08/01 05:52:30;;;;;;;16.00;11.73;;;16.80;99.90;;;;;;5048189;28;20037;-43
2021/08/01 05:54:55;;;;;;;16.38;12.95;;;16.80;99.90;;;;;;5049723;28;20480;-43
2021/08/01 05:57:21;;;;;;;19.95;13.57;;;16.90;99.90;;;;;;5048727;28;20029;-43
2021/08/01 05:59:47;;;;;;;18.13;14.60;;;16.90;99.90;;;;;;5048442;28;20445;-41
2021/08/01 06:02:13;;;;;;;21.52;15.77;;;16.90;99.90;;;;;;5048904;28;20028;-43
2021/08/01 06:04:39;;;;;;;24.75;17.30;;;16.90;99.90;;;;;;5048898;28;20035;-43
2021/08/01 06:07:06;;;;;;;24.98;16.48;;;16.90;99.90;;;;;;5048929;28;20037;-42
2021/08/01 06:09:32;;;;;;;25.30;16.45;;;17.00;99.90;;;;;;5048098;28;20128;-41
2021/08/01 06:11:57;;;;;;;22.02;16.95;;;17.00;99.90;;;;;;5049285;28;20520;-41
2021/08/01 06:14:23;;;;;;;22.58;16.83;;;17.00;99.90;;;;;;5048169;28;20029;-43
2021/08/01 06:16:48;;;;;;;23.70;16.30;;;17.10;99.90;;;;;;5048357;28;20040;-43
2021/08/01 06:19:14;;;;;;;15.90;14.00;;;17.20;99.90;;;;;;5049746;28;20084;-41
2021/08/01 06:21:40;;;;;;;16.42;14.18;;;17.20;99.90;;;;;;5047171;28;20021;-43
2021/08/01 06:24:05;;;;;;;22.25;16.48;;;17.20;99.90;;;;;;5049638;28;20021;-42
2021/08/01 06:26:34;;;;;;;24.23;18.30;;;17.20;99.90;;;;;;5048484;28;20025;-42
2021/08/01 06:28:59;;;;;;;25.70;19.85;;;17.20;99.90;;;;;;5048546;28;20388;-43
2021/08/01 06:31:27;;;;;;;23.83;18.48;;;17.20;99.90;;;;;;5048161;28;20025;-43
2021/08/01 06:33:53;;;;;;;25.50;18.25;;;17.20;99.90;;;;;;5048715;28;20031;-43
2021/08/01 06:36:18;;;;;;;21.52;17.48;;;17.20;99.90;;;;;;5047404;28;20036;-40
2021/08/01 06:38:45;;;;;;;26.17;19.10;;;17.20;99.90;;;;;;5047312;28;20079;-41
2021/08/01 06:41:12;;;;;;;26.08;19.10;;;17.20;99.90;;;;;;5048701;28;20024;-40
2021/08/01 06:43:37;;;;;;;26.20;19.80;;;17.20;99.90;;;;;;5047413;28;20033;-42
2021/08/01 06:46:03;;;;;;;18.73;15.25;;;17.20;99.90;;;;;;5048342;28;20539;-42
2021/08/01 06:48:29;;;;;;;21.80;17.70;;;17.20;99.90;;;;;;5047879;28;20036;-42
2021/08/01 06:50:55;;;;;;;24.00;19.10;;;17.20;99.90;;;;;;5048637;28;20028;-43
2021/08/01 06:53:23;;;;;;;29.73;20.77;;;17.20;99.90;;;;;;5048130;28;20029;-42
2021/08/01 06:55:49;;;;;;;28.30;19.23;;;17.20;99.90;;;;;;5048062;28;20082;-42
2021/08/01 06:58:18;;;;;;;25.25;19.02;;;17.10;99.90;;;;;;5047802;28;20033;-42
2021/08/01 07:00:48;;;;;;;30.73;19.27;;;17.10;99.90;;;;;;5048040;28;20083;-40
2021/08/01 07:03:14;;;;;;;29.23;19.70;;;17.10;99.90;;;;;;5048061;28;20099;-42
2021/08/01 07:05:40;;;;;;;27.00;18.42;;;17.20;99.90;;;;;;5047328;28;20017;-43
2021/08/01 07:08:05;;;;;;;30.52;20.67;;;17.20;99.90;;;;;;5048473;28;20024;-42
2021/08/01 07:10:31;;;;;;;29.75;19.10;;;17.20;99.90;;;;;;5047213;28;20029;-42
2021/08/01 07:13:04;;;;;;;29.85;20.05;;;17.20;99.90;;;;;;5048269;28;20032;-43
2021/08/01 07:15:30;;;;;;;32.63;21.58;;;17.10;99.90;;;;;;5047957;28;20453;-40
2021/08/01 07:18:01;;;;;;;27.42;19.48;;;17.10;99.90;;;;;;5047112;28;20118;-42
2021/08/01 07:20:28;;;;;;;25.38;17.08;;;17.10;99.90;;;;;;5048123;28;20032;-43
2021/08/01 07:22:54;;;;;;;23.17;16.65;;;17.00;99.90;;;;;;5047665;28;20401;-42
2021/08/01 07:25:20;;;;;;;25.95;17.23;;;17.00;99.90;;;;;;5047214;28;20022;-42
2021/08/01 07:27:46;;;;;;;27.55;17.90;;;17.10;99.90;;;;;;5048004;28;20016;-42
2021/08/01 07:30:12;;;;;;;22.33;15.55;;;17.10;99.90;;;;;;5048351;28;20021;-42
2021/08/01 07:32:38;;;;;;;27.15;18.45;;;17.20;99.90;;;;;;5046662;28;20029;-42
2021/08/01 07:35:04;;;;;;;23.70;16.20;;;17.20;99.90;;;;;;5048184;28;20045;-42
2021/08/01 07:37:29;;;;;;;28.00;18.60;;;17.20;99.90;;;;;;5047356;28;20116;-43
2021/08/01 07:39:55;;;;;;;29.38;18.83;;;17.10;99.90;;;;;;5047446;28;20538;-40
2021/08/01 07:42:21;;;;;;;32.67;19.52;;;17.10;99.90;;;;;;5048147;28;20021;-40
2021/08/01 07:44:50;;;;;;;25.90;17.77;;;17.10;99.90;;;;;;5046851;28;20493;-43
2021/08/01 07:47:22;;;;;;;29.75;20.88;;;17.20;99.90;;;;;;5048191;28;20468;-38
2021/08/01 07:49:49;;;;;;;29.15;19.98;;;17.20;99.90;;;;;;5048906;28;20029;-41
2021/08/01 07:52:15;;;;;;;33.22;22.90;;;17.20;99.90;;;;;;5051296;28;20640;-42
2021/08/01 07:54:41;;;;;;;34.03;22.45;;;17.20;99.90;;;;;;5051094;28;20056;-42
2021/08/01 07:57:20;;;;;;;32.28;20.73;;;17.20;99.90;;;;;;5052010;28;20119;-38
2021/08/01 07:59:45;;;;;;;32.58;21.63;;;17.20;99.90;;;;;;5051183;28;20112;-44
2021/08/01 08:02:11;;;;;;;33.10;21.55;;;17.20;99.90;;;;;;5051936;28;20104;-42
2021/08/01 08:04:36;;;;;;;30.60;20.88;;;17.20;99.90;;;;;;5050741;28;20608;-42
2021/08/01 08:07:02;;;;;;;31.83;21.33;;;17.20;99.90;;;;;;5051110;28;20036;-42
2021/08/01 08:09:28;;;;;;;38.28;23.70;;;17.20;99.90;;;;;;5051588;28;20430;-41
2021/08/01 08:11:53;;;;;;;33.80;22.38;;;17.30;99.90;;;;;;5051432;28;20029;-43
2021/08/01 08:14:19;;;;;;;36.13;22.67;;;17.30;99.90;;;;;;5051194;28;20104;-43
2021/08/01 08:16:45;;;;;;;30.88;20.27;;;17.30;99.90;;;;;;5050683;28;20045;-41
2021/08/01 08:19:10;;;;;;;31.30;22.15;;;17.40;99.90;;;;;;5051353;28;20504;-42
2021/08/01 08:21:39;;;;;;;34.83;21.50;;;17.50;99.90;;;;;;5050068;28;20029;-42
2021/08/01 08:24:05;;;;;;;33.30;21.58;;;17.50;99.90;;;;;;5051686;28;20056;-42
2021/08/01 08:26:31;;;;;;;44.05;26.80;;;17.60;99.90;;;;;;5050188;28;20072;-41
2021/08/01 08:28:57;;;;;;;42.55;25.00;;;17.60;99.90;;;;;;5050826;28;20033;-42
2021/08/01 08:31:22;;;;;;;35.00;22.23;;;17.60;99.90;;;;;;5050393;28;20024;-42
2021/08/01 08:33:48;;;;;;;35.58;23.58;;;17.70;99.90;;;;;;5049858;28;20020;-43
2021/08/01 08:36:15;;;;;;;38.38;24.35;;;17.70;99.90;;;;;;5050859;28;20072;-42
2021/08/01 08:38:41;;;;;;;37.47;23.20;;;17.70;99.90;;;;;;5049996;28;20037;-41
2021/08/01 08:41:16;;;;;;;42.67;26.17;;;17.80;99.90;;;;;;5050671;28;20083;-43
2021/08/01 08:43:46;;;;;;;37.42;23.55;;;17.80;99.90;;;;;;5050344;28;20074;-40
2021/08/01 08:46:12;;;;;;;33.65;22.95;;;17.90;99.90;;;;;;5050396;28;20785;-42
2021/08/01 08:48:39;;;;;;;34.10;24.00;;;17.90;99.90;;;;;;5049956;28;20103;-41
2021/08/01 08:51:09;;;;;;;37.45;23.70;;;18.00;99.90;;;;;;5050903;28;20426;-42
2021/08/01 08:53:42;;;;;;;31.40;20.27;;;18.00;99.90;;;;;;5049884;28;20476;-38
2021/08/01 08:56:09;;;;;;;33.88;22.15;;;18.00;99.90;;;;;;5050224;28;20044;-42
2021/08/01 08:58:55;;;;;;;30.58;20.95;;;18.00;99.90;;;;;;5049876;28;20117;-42
2021/08/01 09:01:20;;;;;;;41.00;25.40;;;18.10;99.90;;;;;;5048946;28;20095;-43
2021/08/01 09:03:48;;;;;;;42.80;27.05;;;18.10;99.90;;;;;;5049484;28;20033;-42
2021/08/01 09:06:14;;;;;;;39.38;25.38;;;18.10;99.90;;;;;;5050501;28;20021;-42
2021/08/01 09:08:40;;;;;;;37.03;23.77;;;18.20;99.90;;;;;;5049770;28;20087;-42
2021/08/01 09:11:08;;;;;;;38.10;24.52;;;18.20;99.90;;;;;;5049582;28;20021;-42
2021/08/01 09:13:50;;;;;;;39.75;25.33;;;18.20;99.90;;;;;;5050174;28;20111;-43
2021/08/01 09:16:19;;;;;;;35.23;23.13;;;18.20;99.90;;;;;;5049815;28;20021;-42
2021/08/01 09:18:45;;;;;;;31.77;22.00;;;18.30;99.90;;;;;;5050072;28;20100;-42
2021/08/01 09:21:33;;;;;;;37.13;26.55;;;18.40;99.90;;;;;;5050187;28;20028;-43
2021/08/01 09:24:03;;;;;;;40.97;26.20;;;18.40;99.90;;;;;;5048641;28;20029;-44
2021/08/01 09:26:43;;;;;;;33.05;21.83;;;18.40;99.90;;;;;;5049648;28;20033;-42
2021/08/01 09:29:09;;;;;;;36.05;23.33;;;18.40;99.90;;;;;;5049776;28;20403;-42
2021/08/01 09:31:37;;;;;;;34.05;23.10;;;18.40;99.90;;;;;;5048927;28;20032;-42
2021/08/01 09:34:27;;;;;;;33.10;22.15;;;18.50;99.90;;;;;;5049816;28;20028;-41
2021/08/01 09:37:04;;;;;;;28.65;18.63;;;18.70;99.90;;;;;;5046089;28;20053;-42
2021/08/01 09:39:39;;;;;;;30.15;20.50;;;18.90;99.90;;;;;;5049561;28;20017;-43
2021/08/01 09:42:05;;;;;;;32.03;21.17;;;18.90;99.90;;;;;;5049310;28;20079;-40
2021/08/01 09:44:31;;;;;;;34.50;23.30;;;19.00;99.90;;;;;;5048705;28;20056;-43
2021/08/01 09:46:57;;;;;;;32.42;22.10;;;19.20;99.90;;;;;;5049242;28;20113;-43
2021/08/01 09:49:29;;;;;;;34.17;24.05;;;19.40;99.90;;;;;;5048662;28;20475;-40
2021/08/01 09:52:04;;;;;;;37.03;22.83;;;19.50;99.90;;;;;;5049611;28;20029;-42
2021/08/01 09:54:48;;;;;;;32.35;23.23;;;19.60;99.90;;;;;;5048722;28;20013;-42
2021/08/01 09:57:19;;;;;;;29.80;21.25;;;19.70;99.90;;;;;;5049733;28;20029;-43
2021/08/01 09:59:48;;;;;;;30.52;21.58;;;19.80;99.90;;;;;;5047511;28;20021;-43
2021/08/01 10:02:13;;;;;;;35.50;22.80;;;19.80;99.90;;;;;;5049642;28;20033;-41
2021/08/01 10:04:42;;;;;;;31.60;21.35;;;19.90;99.90;;;;;;5049309;28;20043;-41
2021/08/01 10:07:12;;;;;;;32.58;20.55;;;20.00;99.90;;;;;;5048617;28;20048;-43
2021/08/01 10:09:41;;;;;;;35.53;23.80;;;20.20;99.90;;;;;;5048931;28;20025;-42
2021/08/01 10:12:08;;;;;;;29.00;21.45;;;20.40;99.90;;;;;;5048671;28;20082;-43
2021/08/01 10:14:34;;;;;;;29.67;20.40;;;20.40;99.90;;;;;;5047503;28;20021;-42
2021/08/01 10:17:00;;;;;;;27.52;18.42;;;20.60;99.90;;;;;;5049021;28;20064;-43
2021/08/01 10:19:27;;;;;;;28.50;20.05;;;20.80;99.90;;;;;;5048439;28;20024;-42
2021/08/01 10:21:57;;;;;;;27.50;20.65;;;21.10;99.90;;;;;;5048942;28;20021;-43
2021/08/01 10:24:26;;;;;;;26.95;20.63;;;21.10;99.90;;;;;;5048085;28;20019;-41
2021/08/01 10:26:53;;;;;;;25.20;18.83;;;21.10;99.90;;;;;;5048341;28;20036;-42
2021/08/01 10:29:29;;;;;;;27.83;18.60;;;21.10;99.90;;;;;;5048589;28;20413;-43
2021/08/01 10:32:04;;;;;;;23.63;17.98;;;21.00;99.90;;;;;;5048467;28;20043;-42
2021/08/01 10:34:53;;;;;;;27.70;19.35;;;20.80;99.90;;;;;;5047570;28;20136;-39
2021/08/01 10:37:24;;;;;;;26.27;18.17;;;20.80;99.90;;;;;;5048449;28;20037;-40
2021/08/01 10:39:52;;;;;;;24.25;16.75;;;20.60;99.90;;;;;;5048445;28;20557;-40
2021/08/01 10:42:20;;;;;;;25.52;18.13;;;20.60;99.90;;;;;;5048920;28;20103;-41
2021/08/01 10:44:47;;;;;;;25.17;17.40;;;20.40;99.90;;;;;;5048131;28;20029;-40
2021/08/01 10:47:13;;;;;;;24.80;17.17;;;20.20;99.90;;;;;;5048598;28;20108;-42
2021/08/01 10:49:44;;;;;;;23.55;16.98;;;20.10;99.90;;;;;;5047143;28;20038;-44
2021/08/01 10:52:13;;;;;;;22.08;16.38;;;19.90;99.90;;;;;;5048745;28;20159;-45
2021/08/01 10:54:57;;;;;;;27.98;20.23;;;19.70;99.90;;;;;;5048238;28;20021;-46
2021/08/01 10:57:24;;;;;;;27.17;19.05;;;19.50;99.90;;;;;;5039260;28;20488;-43
2021/08/01 11:00:00;;;;;;;23.70;16.33;;;19.30;99.90;;;;;;5048946;28;20357;-45
2021/08/01 11:02:29;;;;;;;23.45;16.30;;;19.20;99.90;;;;;;5037338;28;20021;-42
2021/08/01 11:04:56;;;;;;;19.98;13.65;;;19.00;99.90;;;;;;5048583;28;20017;-44
2021/08/01 11:07:28;;;;;;;16.30;12.05;;;18.90;99.90;;;;;;5048674;28;20102;-44
2021/08/01 11:10:10;;;;;;;13.93;10.70;;;18.90;99.90;;;;;;5047900;28;20026;-43
2021/08/01 11:12:41;;;;;;;11.70;9.55;;;18.80;99.90;;;;;;5047520;28;20062;-42
2021/08/01 11:15:09;;;;;;;12.13;8.55;;;18.80;99.90;;;;;;5048056;28;20029;-44
2021/08/01 11:17:43;;;;;;;15.05;10.15;;;18.80;99.90;;;;;;5047803;28;20036;-45
2021/08/01 11:20:15;;;;;;;17.10;11.95;;;18.90;99.90;;;;;;5048034;28;20025;-41
2021/08/01 11:22:43;;;;;;;17.52;12.27;;;19.00;99.90;;;;;;5044080;28;20727;-41
2021/08/01 11:25:30;;;;;;;18.40;13.73;;;19.10;99.90;;;;;;5049958;28;20392;-43
2021/08/01 11:28:07;;;;;;;22.58;14.98;;;19.30;99.90;;;;;;5049754;28;20036;-40
2021/08/01 11:30:52;;;;;;;21.67;13.98;;;19.60;99.90;;;;;;5051550;28;20021;-41
2021/08/01 11:33:48;;;;;;;18.17;13.25;;;19.90;99.90;;;;;;5052314;28;20041;-42
2021/08/01 11:36:15;;;;;;;18.90;13.23;;;20.10;99.90;;;;;;5037973;28;20040;-42
2021/08/01 11:38:56;;;;;;;18.42;13.00;;;20.20;99.90;;;;;;5050747;28;20442;-43
2021/08/01 11:41:35;;;;;;;12.18;10.30;;;20.20;99.90;;;;;;5051719;28;20375;-42
2021/08/01 11:44:11;;;;;;;13.27;9.48;;;20.20;99.90;;;;;;5051912;28;20043;-43
2021/08/01 11:46:55;;;;;;;12.32;8.77;;;20.20;99.90;;;;;;5051517;28;20028;-44
2021/08/01 11:49:23;;;;;;;13.75;8.90;;;20.10;99.90;;;;;;5051572;28;20033;-43
2021/08/01 11:51:51;;;;;;;10.25;6.60;;;20.00;99.90;;;;;;5051227;28;20381;-44
2021/08/01 11:54:17;;;;;;;5.57;4.97;;;20.00;99.90;;;;;;5052321;28;20017;-42
2021/08/01 11:56:44;;;;;;;6.28;5.10;;;20.10;99.90;;;;;;5051517;28;20056;-45
2021/08/01 11:59:14;;;;;;;4.88;4.05;;;20.20;99.90;;;;;;5051059;28;20078;-41
2021/08/01 12:01:40;;;;;;;4.93;4.10;;;20.20;99.90;;;;;;5051750;28;20096;-44
2021/08/01 12:04:10;;;;;;;3.47;3.17;;;20.20;99.90;;;;;;5051418;28;20088;-42
2021/08/01 12:06:39;;;;;;;4.75;4.03;;;20.30;99.90;;;;;;5051063;28;20021;-42
2021/08/01 12:09:27;;;;;;;5.22;4.22;;;20.20;99.90;;;;;;5051484;28;20476;-43
2021/08/01 12:11:56;;;;;;;8.07;5.97;;;20.20;99.90;;;;;;5050841;28;20027;-44
2021/08/01 12:14:27;;;;;;;7.28;6.10;;;20.20;99.90;;;;;;5047628;28;20029;-43
2021/08/01 12:16:55;;;;;;;6.10;5.28;;;20.20;99.90;;;;;;5051883;28;20032;-43
2021/08/01 12:19:22;;;;;;;7.05;4.90;;;20.10;99.90;;;;;;5050772;28;20025;-44
2021/08/01 12:21:50;;;;;;;5.47;4.47;;;20.00;99.90;;;;;;5051706;28;20029;-43
2021/08/01 12:24:43;;;;;;;5.18;4.20;;;19.90;99.90;;;;;;5051419;28;20071;-40
2021/08/01 12:27:12;;;;;;;4.03;3.63;;;19.80;99.90;;;;;;5050593;28;20035;-42
2021/08/01 12:29:48;;;;;;;5.53;3.90;;;19.80;99.90;;;;;;5050742;28;20088;-44
2021/08/01 12:32:29;;;;;;;3.80;3.50;;;19.80;99.90;;;;;;5051748;28;20029;-43
2021/08/01 12:35:12;;;;;;;4.22;3.83;;;19.90;99.90;;;;;;5049640;28;20037;-43
2021/08/01 12:37:46;;;;;;;4.03;3.58;;;20.00;99.90;;;;;;5049834;28;20421;-44
2021/08/01 12:40:24;;;;;;;4.20;3.80;;;20.10;99.90;;;;;;5047518;28;20024;-44
2021/08/01 12:42:53;;;;;;;4.25;3.72;;;20.10;99.90;;;;;;5051720;28;20055;-43